Aransas Pass, Texas
Current Conditions -  °F | °C
As of 3:55 PM on Friday 28 Nov 2014 (Local Time) from KTFP Reporting Station
Clear Clear  
Wind Chill: 73°   Ceiling: Unl
Heat Index: 73°   Visibility: 10mi
Dew Point: 53°   Wind: 15mph
Humidity: 49%   Direction: 160°SSE
Pressure: 30.16"   Gusts: 24mph
Location:  27.9°N, 97.15°W
Report Text: KTFP 282155Z AUTO 16013G21KT 10SM CLR 23/12 A3016 RMK AO2 T02290116
Loading
Personal Weather Stations






























Interactive Weather Map New forecast layout! Learn more

10-Day Weather Forecast

Advertisements
Track Severe Weather on mobile